createdAt,value
2023-04-29T00:01:20.783Z,10.37
2023-04-29T00:05:22.927Z,10.31
2023-04-29T00:09:25.021Z,10.24
2023-04-29T00:13:27.118Z,10.20
2023-04-29T00:17:29.222Z,10.18
2023-04-29T00:21:33.197Z,10.12
2023-04-29T00:25:35.371Z,10.06
2023-04-29T00:29:37.438Z,10.01
2023-04-29T00:33:40.785Z,9.97
2023-04-29T00:37:43.207Z,9.90
2023-04-29T00:41:45.241Z,9.87
2023-04-29T00:45:47.356Z,9.86
2023-04-29T00:49:49.756Z,9.87
2023-04-29T00:53:51.942Z,9.90
2023-04-29T00:57:54.029Z,9.93
2023-04-29T01:01:56.225Z,9.96
2023-04-29T01:06:20.098Z,10.03
2023-04-29T01:10:28.224Z,10.15
2023-04-29T01:14:33.515Z,10.29
2023-04-29T01:18:49.736Z,10.46
2023-04-29T01:22:54.113Z,10.53
2023-04-29T01:27:02.353Z,10.56
2023-04-29T01:32:03.370Z,10.57
2023-04-29T01:36:17.595Z,10.53
2023-04-29T01:40:33.940Z,10.51
2023-04-29T01:44:43.734Z,10.53
2023-04-29T01:48:46.879Z,10.58
2023-04-29T01:52:49.285Z,10.61
2023-04-29T01:56:52.172Z,10.70
2023-04-29T02:01:04.802Z,10.73
2023-04-29T02:05:09.825Z,10.75
2023-04-29T02:09:15.719Z,10.70
2023-04-29T02:13:24.404Z,10.67
2023-04-29T02:17:26.543Z,10.67
2023-04-29T02:21:28.646Z,10.64
2023-04-29T02:25:30.817Z,10.62
2023-04-29T02:29:34.224Z,10.64
2023-04-29T02:33:36.313Z,10.69
2023-04-29T02:37:38.640Z,10.70
2023-04-29T02:41:42.077Z,10.63
2023-04-29T02:45:46.528Z,10.51
2023-04-29T02:49:48.711Z,10.45
2023-04-29T02:53:51.120Z,10.44
2023-04-29T02:57:53.198Z,10.36
2023-04-29T03:01:55.235Z,10.32
2023-04-29T03:05:57.253Z,10.32
2023-04-29T03:09:59.456Z,10.32
2023-04-29T03:14:01.496Z,10.32
2023-04-29T03:18:04.937Z,10.28
2023-04-29T03:22:11.538Z,10.24
2023-04-29T03:26:14.991Z,10.40
2023-04-29T03:30:17.615Z,10.37
2023-04-29T03:34:24.690Z,10.24
2023-04-29T03:38:42.132Z,10.17
2023-04-29T03:42:44.279Z,10.08
2023-04-29T03:46:46.415Z,9.90
2023-04-29T03:50:48.651Z,9.78
2023-04-29T03:54:51.109Z,9.64
2023-04-29T03:58:53.499Z,9.58
2023-04-29T04:02:58.925Z,9.47
2023-04-29T04:07:01.336Z,9.38
2023-04-29T04:11:09.906Z,9.30
2023-04-29T04:15:17.377Z,9.29
2023-04-29T04:19:19.450Z,9.25
2023-04-29T04:23:21.756Z,9.21
2023-04-29T04:27:23.888Z,9.30
2023-04-29T04:31:26.161Z,9.41
2023-04-29T04:35:28.438Z,9.51
2023-04-29T04:39:30.538Z,9.64
2023-04-29T04:43:34.059Z,9.62
2023-04-29T04:47:37.392Z,9.63
2023-04-29T04:51:47.317Z,10.10
2023-04-29T04:55:49.888Z,11.40
2023-04-29T04:59:52.177Z,11.78
2023-04-29T05:03:54.340Z,12.06
2023-04-29T05:07:57.065Z,11.40
2023-04-29T05:12:06.737Z,10.76
2023-04-29T05:16:08.820Z,10.29
2023-04-29T05:20:14.799Z,10.15
2023-04-29T05:24:16.891Z,10.08
2023-04-29T05:28:20.051Z,9.95
2023-04-29T05:32:22.222Z,9.81
2023-04-29T05:36:24.360Z,9.81
2023-04-29T05:40:27.128Z,9.74
2023-04-29T05:44:37.764Z,9.80
2023-04-29T05:48:41.430Z,9.79
2023-04-29T05:52:45.033Z,9.84
2023-04-29T05:56:47.103Z,9.88
2023-04-29T06:00:49.688Z,9.97
2023-04-29T06:04:56.862Z,9.99
2023-04-29T06:09:27.454Z,9.96
2023-04-29T06:13:32.847Z,10.04
2023-04-29T06:17:34.968Z,10.10
2023-04-29T06:21:37.077Z,10.10
2023-04-29T06:25:39.426Z,10.10
2023-04-29T06:29:43.081Z,10.11
2023-04-29T06:33:46.557Z,10.08
2023-04-29T06:37:48.837Z,10.02
2023-04-29T06:42:10.159Z,10.08
2023-04-29T06:46:20.037Z,10.07
2023-04-29T06:50:33.975Z,10.11
2023-04-29T06:54:36.248Z,10.41
2023-04-29T06:58:38.428Z,11.11
2023-04-29T07:02:43.260Z,11.26
2023-04-29T07:06:47.009Z,10.97
2023-04-29T07:10:57.533Z,10.76
2023-04-29T07:14:59.888Z,10.56
2023-04-29T07:19:01.935Z,10.40
2023-04-29T07:23:03.982Z,10.29
2023-04-29T07:27:06.946Z,10.30
2023-04-29T07:31:09.504Z,10.34
2023-04-29T07:35:11.582Z,10.42
2023-04-29T07:39:15.354Z,10.47
2023-04-29T07:43:20.402Z,10.38
2023-04-29T07:47:22.448Z,10.20
2023-04-29T07:51:24.756Z,10.17
2023-04-29T07:55:27.290Z,10.32
2023-04-29T07:59:31.294Z,10.34
2023-04-29T08:03:33.878Z,10.48
2023-04-29T08:07:36.485Z,10.61
2023-04-29T08:11:39.943Z,10.73
2023-04-29T08:15:41.933Z,10.90
2023-04-29T08:19:44.534Z,11.00
2023-04-29T08:23:46.548Z,11.07
2023-04-29T08:27:48.701Z,11.07
2023-04-29T08:31:51.010Z,11.22
2023-04-29T08:36:03.648Z,11.38
2023-04-29T08:40:06.369Z,11.47
2023-04-29T08:44:08.401Z,11.39
2023-04-29T08:48:10.803Z,11.26
2023-04-29T08:52:12.987Z,11.12
2023-04-29T08:56:21.927Z,11.04
2023-04-29T09:00:24.830Z,10.99
2023-04-29T09:04:51.855Z,10.91
2023-04-29T09:08:54.277Z,10.74
2023-04-29T09:12:58.284Z,10.68
2023-04-29T09:17:00.612Z,10.73
2023-04-29T09:21:21.129Z,10.69
2023-04-29T09:25:24.456Z,10.51
2023-04-29T09:29:26.516Z,10.39
2023-04-29T09:33:31.410Z,11.13
2023-04-29T09:37:33.450Z,12.29
2023-04-29T09:41:35.476Z,13.02
2023-04-29T09:45:39.688Z,13.67
2023-04-29T09:49:45.233Z,13.83
2023-04-29T09:53:47.283Z,13.53
2023-04-29T09:57:49.353Z,13.32
2023-04-29T10:01:53.893Z,13.47
2023-04-29T10:05:57.066Z,13.34
2023-04-29T10:09:59.083Z,13.44
2023-04-29T10:14:02.820Z,13.72
2023-04-29T10:18:31.009Z,14.14
2023-04-29T10:22:42.823Z,14.40
2023-04-29T10:26:46.864Z,14.58
2023-04-29T10:30:51.692Z,14.84
2023-04-29T10:34:56.201Z,15.03
2023-04-29T10:39:04.337Z,15.14
2023-04-29T10:43:06.615Z,15.18
2023-04-29T10:47:21.325Z,15.06
2023-04-29T10:51:44.268Z,14.92
2023-04-29T10:55:56.284Z,15.23
2023-04-29T10:59:58.318Z,15.33
2023-04-29T11:04:04.825Z,15.15
2023-04-29T11:08:16.538Z,14.87
2023-04-29T11:12:21.288Z,14.42
2023-04-29T11:16:29.654Z,13.76
2023-04-29T11:20:31.709Z,13.31
2023-04-29T11:24:35.646Z,13.12
2023-04-29T11:28:38.977Z,13.31
2023-04-29T11:32:42.789Z,13.56
2023-04-29T11:36:46.359Z,13.83
2023-04-29T11:40:50.466Z,14.08
2023-04-29T11:44:54.431Z,14.35
2023-04-29T11:48:58.108Z,14.58
2023-04-29T11:53:00.234Z,14.52
2023-04-29T11:57:04.838Z,14.23
2023-04-29T12:01:07.111Z,14.25
2023-04-29T12:05:09.512Z,14.20
2023-04-29T12:09:12.339Z,14.34
2023-04-29T12:13:15.637Z,14.17
2023-04-29T12:17:18.041Z,13.93
2023-04-29T12:21:21.928Z,13.70
2023-04-29T12:25:28.068Z,13.36
2023-04-29T12:29:31.679Z,13.20
2023-04-29T12:33:34.587Z,13.11
2023-04-29T12:37:36.621Z,13.20
2023-04-29T12:41:40.280Z,13.30
2023-04-29T12:45:42.779Z,13.28
2023-04-29T12:49:46.534Z,13.35
2023-04-29T12:53:48.539Z,13.32
2023-04-29T12:57:50.807Z,13.15
2023-04-29T13:01:52.834Z,13.03
2023-04-29T13:05:55.111Z,12.98
2023-04-29T13:09:57.258Z,12.97
2023-04-29T13:13:59.264Z,12.97
2023-04-29T13:18:01.990Z,12.92
2023-04-29T13:22:04.071Z,13.00
2023-04-29T13:26:06.285Z,12.92
2023-04-29T13:30:09.136Z,12.89
2023-04-29T13:34:11.174Z,12.96
2023-04-29T13:38:13.337Z,13.19
2023-04-29T13:42:15.913Z,13.29
2023-04-29T13:46:20.721Z,13.33
2023-04-29T13:51:13.913Z,13.25
2023-04-29T13:54:55.525Z,13.05
2023-04-29T14:03:07.528Z,12.84
2023-04-29T14:07:09.618Z,12.86
2023-04-29T14:11:11.691Z,12.96
2023-04-29T14:15:13.990Z,13.16
2023-04-29T14:19:16.128Z,13.22
2023-04-29T14:23:18.144Z,13.10
2023-04-29T14:27:21.590Z,13.07
2023-04-29T14:31:28.435Z,13.05
2023-04-29T14:35:31.526Z,13.11
2023-04-29T14:39:33.695Z,13.00
2023-04-29T14:43:35.855Z,12.88
2023-04-29T14:47:38.046Z,12.74
2023-04-29T14:51:40.119Z,12.58
2023-04-29T14:55:42.234Z,12.36
2023-04-29T14:59:44.419Z,11.99
2023-04-29T15:03:46.582Z,11.66
2023-04-29T15:07:48.759Z,11.42
2023-04-29T15:11:50.779Z,11.33
2023-04-29T15:15:52.848Z,11.18
2023-04-29T15:19:54.972Z,11.02
2023-04-29T15:23:57.271Z,10.96
2023-04-29T15:27:59.537Z,10.85
2023-04-29T15:32:01.688Z,10.78
2023-04-29T15:36:04.353Z,10.79
2023-04-29T15:40:07.091Z,10.85
2023-04-29T15:44:09.084Z,10.89
2023-04-29T15:48:11.104Z,10.89
2023-04-29T15:52:13.583Z,10.88
2023-04-29T15:56:15.798Z,10.82
2023-04-29T16:00:18.468Z,10.80
2023-04-29T16:04:20.519Z,10.73
2023-04-29T16:08:22.918Z,10.66
2023-04-29T16:12:25.137Z,10.68
2023-04-29T16:16:27.318Z,10.73
2023-04-29T16:20:29.390Z,10.77
2023-04-29T16:24:31.438Z,10.76
2023-04-29T16:28:33.464Z,10.79
2023-04-29T16:32:35.628Z,10.85
2023-04-29T16:36:37.778Z,10.88
2023-04-29T16:40:39.855Z,10.86
2023-04-29T16:44:41.864Z,10.87
2023-04-29T16:48:43.973Z,10.92
2023-04-29T16:52:46.033Z,10.92
2023-04-29T16:56:50.226Z,10.90
2023-04-29T17:00:53.598Z,10.86
2023-04-29T17:04:55.754Z,10.87
2023-04-29T17:08:58.101Z,10.97
2023-04-29T17:13:00.135Z,10.94
2023-04-29T17:17:02.152Z,10.88
2023-04-29T17:21:04.345Z,10.88
2023-04-29T17:25:09.046Z,11.11
2023-04-29T17:29:12.484Z,11.10
2023-04-29T17:33:14.588Z,11.02
2023-04-29T17:37:17.562Z,11.07
2023-04-29T17:41:19.752Z,11.13
2023-04-29T17:45:21.775Z,11.14
2023-04-29T17:49:23.806Z,11.11
2023-04-29T17:53:26.693Z,11.12
2023-04-29T17:57:28.851Z,11.11
2023-04-29T18:01:34.704Z,11.14
2023-04-29T18:05:36.757Z,11.05
2023-04-29T18:09:38.820Z,11.05
2023-04-29T18:13:41.282Z,11.08
2023-04-29T18:17:43.786Z,11.06
2023-04-29T18:21:45.854Z,11.05
2023-04-29T18:25:48.335Z,11.04
2023-04-29T18:29:51.234Z,11.06
2023-04-29T18:33:53.598Z,11.06
2023-04-29T18:37:55.668Z,11.07
2023-04-29T18:41:58.081Z,11.07
2023-04-29T18:46:00.348Z,11.00
2023-04-29T18:50:03.679Z,10.96
2023-04-29T18:54:05.677Z,10.92
2023-04-29T18:58:07.835Z,10.79
2023-04-29T19:02:09.910Z,10.70
2023-04-29T19:06:13.055Z,10.58
2023-04-29T19:10:15.177Z,10.43
2023-04-29T19:14:17.235Z,10.39
2023-04-29T19:18:21.305Z,10.33
2023-04-29T19:22:23.480Z,10.30
2023-04-29T19:26:25.709Z,10.22
2023-04-29T19:30:27.689Z,10.28
2023-04-29T19:34:30.021Z,10.28
2023-04-29T19:38:32.090Z,10.20
2023-04-29T19:42:34.156Z,10.15
2023-04-29T19:46:36.316Z,10.14
2023-04-29T19:50:38.569Z,10.15
2023-04-29T19:54:40.870Z,10.19
2023-04-29T19:58:42.947Z,10.20
2023-04-29T20:02:45.116Z,10.20
2023-04-29T20:06:47.372Z,10.22
2023-04-29T20:10:49.521Z,10.27
2023-04-29T20:14:51.850Z,10.29
2023-04-29T20:18:53.856Z,10.26
2023-04-29T20:22:58.080Z,10.25
2023-04-29T20:27:00.249Z,10.22
2023-04-29T20:31:02.247Z,10.19
2023-04-29T20:35:05.638Z,10.18
2023-04-29T20:39:09.301Z,10.10
2023-04-29T20:43:11.338Z,10.10
2023-04-29T20:47:13.371Z,10.17
2023-04-29T20:51:15.509Z,10.18
2023-04-29T20:55:17.563Z,10.07
2023-04-29T20:59:19.580Z,9.91
2023-04-29T21:03:22.521Z,9.76
2023-04-29T21:07:24.574Z,9.57
2023-04-29T21:11:26.620Z,9.46
2023-04-29T21:15:29.402Z,9.39
2023-04-29T21:19:31.688Z,9.34
2023-04-29T21:23:33.680Z,9.30
2023-04-29T21:27:36.415Z,9.30
2023-04-29T21:31:38.559Z,9.26
2023-04-29T21:35:42.174Z,9.20
2023-04-29T21:39:44.340Z,9.14
2023-04-29T21:43:48.471Z,9.12
2023-04-29T21:47:51.801Z,9.10
2023-04-29T21:51:55.077Z,9.13
2023-04-29T21:55:57.081Z,9.07
2023-04-29T21:59:59.362Z,9.12
2023-04-29T22:04:01.400Z,9.22
2023-04-29T22:08:07.084Z,9.24
2023-04-29T22:12:09.245Z,9.13
2023-04-29T22:16:11.836Z,9.12
2023-04-29T22:20:14.566Z,9.15
2023-04-29T22:24:16.583Z,9.18
2023-04-29T22:28:18.635Z,9.22
2023-04-29T22:32:20.669Z,9.22
2023-04-29T22:36:22.788Z,9.22
2023-04-29T22:40:24.861Z,9.21
2023-04-29T22:44:26.950Z,9.10
2023-04-29T22:48:28.986Z,9.09
2023-04-29T22:52:32.652Z,9.10
2023-04-29T22:56:34.706Z,9.08
2023-04-29T23:00:36.703Z,9.04
2023-04-29T23:04:38.744Z,9.05
2023-04-29T23:08:40.806Z,9.11
2023-04-29T23:12:43.025Z,9.22
2023-04-29T23:16:45.354Z,9.26
2023-04-29T23:20:47.804Z,9.29
2023-04-29T23:24:49.953Z,9.32
2023-04-29T23:28:51.947Z,9.43
2023-04-29T23:32:54.016Z,9.49
2023-04-29T23:36:56.059Z,9.56
2023-04-29T23:40:58.040Z,9.59
2023-04-29T23:45:00.055Z,9.65
2023-04-29T23:49:02.054Z,9.65
2023-04-29T23:53:04.075Z,9.63
2023-04-29T23:57:06.908Z,9.59
